< < Back
Terminal Aerodrome Forecast


Current Version              Previous Versions:   1  2  3  4  5  6  7  8  9  

Terminal Aerodrome Forecast

407
FTUS44 KOHX 310800 AAA
TAFBNA
TAF AMD
KBNA 310823Z 3108/0106 VRB04KT P6SM BKN100
     FM311200 35006KT P6SM VCSH OVC050
     FM311500 33009KT P6SM -SHRA OVC025
     FM311800 33014G23KT P6SM OVC015
     FM010300 32013G22KT P6SM SKC=

Latest METAR

191
SAUS70 KWBC 311256
MTRBNA
METAR KBNA 311253Z VRB04KT 6SM -RA BR SCT035 BKN047 OVC055 10/08 A3002
RMK AO2 RAB22 SLP165 P0001 T01000078


USA.gov is the U.S. government's official web portal to all federal, state and local government web resources and services.